createdAt,value
2023-04-14T00:00:13.963Z,2.70
2023-04-14T00:02:19.657Z,3.22
2023-04-14T00:04:22.637Z,3.58
2023-04-14T00:06:27.300Z,3.10
2023-04-14T00:08:30.075Z,2.88
2023-04-14T00:10:32.883Z,3.10
2023-04-14T00:12:35.691Z,3.30
2023-04-14T00:14:38.419Z,2.30
2023-04-14T00:16:42.831Z,3.25
2023-04-14T00:18:46.980Z,3.08
2023-04-14T00:20:49.819Z,4.57
2023-04-14T00:22:52.588Z,2.60
2023-04-14T00:24:55.389Z,2.55
2023-04-14T00:26:58.201Z,2.20
2023-04-14T00:29:01.280Z,4.10
2023-04-14T00:31:04.268Z,3.63
2023-04-14T00:33:07.847Z,3.17
2023-04-14T00:35:12.055Z,2.97
2023-04-14T00:37:14.818Z,3.00
2023-04-14T00:39:17.562Z,2.92
2023-04-14T00:41:20.315Z,3.22
2023-04-14T00:43:23.199Z,2.92
2023-04-14T00:45:27.348Z,3.30
2023-04-14T00:47:30.159Z,2.30
2023-04-14T00:49:32.959Z,2.85
2023-04-14T00:51:37.675Z,3.03
2023-04-14T00:53:41.545Z,2.17
2023-04-14T00:55:44.703Z,2.22
2023-04-14T00:57:48.056Z,2.33
2023-04-14T00:59:51.021Z,2.63
2023-04-14T01:01:55.907Z,2.10
2023-04-14T01:03:59.692Z,2.40
2023-04-14T01:06:03.613Z,2.70
2023-04-14T01:08:07.924Z,2.22
2023-04-14T01:10:11.856Z,2.40
2023-04-14T01:12:19.721Z,3.05
2023-04-14T01:14:34.060Z,2.03
2023-04-14T01:16:41.360Z,2.42
2023-04-14T01:18:54.574Z,2.50
2023-04-14T01:21:00.557Z,2.50
2023-04-14T01:23:08.156Z,2.40
2023-04-14T01:25:37.961Z,2.60
2023-04-14T01:27:50.835Z,3.08
2023-04-14T01:30:10.690Z,2.38
2023-04-14T01:32:20.505Z,2.53
2023-04-14T01:34:30.417Z,2.10
2023-04-14T01:36:41.437Z,2.63
2023-04-14T01:38:46.738Z,2.60
2023-04-14T01:40:53.592Z,2.83
2023-04-14T01:43:02.741Z,2.50
2023-04-14T01:45:22.932Z,2.70
2023-04-14T01:47:29.162Z,2.70
2023-04-14T01:49:37.334Z,2.85
2023-04-14T01:51:44.702Z,2.55
2023-04-14T01:53:50.599Z,2.80
2023-04-14T01:55:55.491Z,2.70
2023-04-14T01:57:59.082Z,3.65
2023-04-14T02:00:04.520Z,2.67
2023-04-14T02:02:18.673Z,5.55
2023-04-14T02:04:26.630Z,3.50
2023-04-14T02:06:31.796Z,3.00
2023-04-14T02:08:36.256Z,3.22
2023-04-14T02:10:41.611Z,2.80
2023-04-14T02:12:45.546Z,2.83
2023-04-14T02:14:51.091Z,3.30
2023-04-14T02:16:57.299Z,18.38
2023-04-14T02:19:01.586Z,16.88
2023-04-14T02:21:06.974Z,17.25
2023-04-14T02:23:10.009Z,9.50
2023-04-14T02:25:12.913Z,5.63
2023-04-14T02:27:20.040Z,3.67
2023-04-14T02:29:24.724Z,3.80
2023-04-14T02:31:31.315Z,3.40
2023-04-14T02:33:37.930Z,3.28
2023-04-14T02:35:47.291Z,3.00
2023-04-14T02:37:56.076Z,2.58
2023-04-14T02:40:04.469Z,2.30
2023-04-14T02:42:13.931Z,3.42
2023-04-14T02:44:20.564Z,3.45
2023-04-14T02:46:26.823Z,3.00
2023-04-14T02:48:30.813Z,2.80
2023-04-14T02:50:35.074Z,2.50
2023-04-14T02:52:51.414Z,3.72
2023-04-14T02:54:58.502Z,2.53
2023-04-14T02:57:02.262Z,2.47
2023-04-14T02:59:08.168Z,2.55
2023-04-14T03:01:17.237Z,3.20
2023-04-14T03:03:21.278Z,5.80
2023-04-14T03:05:25.613Z,8.43
2023-04-14T03:07:36.754Z,11.30
2023-04-14T03:09:41.348Z,9.27
2023-04-14T03:11:46.357Z,13.93
2023-04-14T03:13:53.535Z,11.80
2023-04-14T03:15:59.446Z,12.18
2023-04-14T03:18:05.448Z,7.05
2023-04-14T03:20:11.001Z,5.43
2023-04-14T03:22:15.468Z,4.97
2023-04-14T03:24:24.415Z,4.55
2023-04-14T03:26:33.076Z,4.50
2023-04-14T03:28:41.219Z,4.40
2023-04-14T03:30:49.163Z,2.85
2023-04-14T03:32:53.586Z,3.13
2023-04-14T03:34:59.228Z,3.15
2023-04-14T03:37:05.461Z,2.72
2023-04-14T03:39:14.504Z,3.25
2023-04-14T03:41:22.151Z,2.33
2023-04-14T03:43:27.270Z,2.42
2023-04-14T03:45:40.150Z,2.92
2023-04-14T03:47:44.160Z,2.40
2023-04-14T03:49:50.294Z,3.08
2023-04-14T03:51:55.771Z,2.90
2023-04-14T03:54:00.775Z,3.20
2023-04-14T03:56:06.467Z,3.15
2023-04-14T03:58:11.827Z,3.13
2023-04-14T04:00:16.781Z,2.72
2023-04-14T04:02:24.718Z,2.30
2023-04-14T04:04:28.588Z,2.05
2023-04-14T04:06:33.729Z,2.25
2023-04-14T04:08:37.994Z,2.38
2023-04-14T04:10:43.799Z,2.20
2023-04-14T04:12:48.849Z,2.53
2023-04-14T04:14:52.556Z,2.95
2023-04-14T04:16:57.016Z,3.42
2023-04-14T04:19:07.296Z,3.53
2023-04-14T04:21:11.608Z,3.35
2023-04-14T04:23:18.075Z,2.17
2023-04-14T04:25:21.269Z,2.40
2023-04-14T04:27:34.685Z,2.17
2023-04-14T04:29:45.187Z,2.00
2023-04-14T04:31:48.557Z,1.45
2023-04-14T04:33:52.506Z,1.92
2023-04-14T04:35:58.629Z,2.20
2023-04-14T04:38:11.310Z,2.58
2023-04-14T04:40:16.880Z,2.40
2023-04-14T04:42:20.231Z,3.15
2023-04-14T04:44:23.009Z,3.38
2023-04-14T04:46:54.320Z,3.28
2023-04-14T04:49:01.131Z,25.98
2023-04-14T04:51:05.471Z,39.03
2023-04-14T04:53:08.193Z,25.65
2023-04-14T04:55:11.688Z,29.70
2023-04-14T04:57:14.465Z,12.18
2023-04-14T04:59:17.471Z,13.73
2023-04-14T05:01:20.363Z,11.75
2023-04-14T05:03:23.203Z,7.78
2023-04-14T05:05:26.103Z,6.25
2023-04-14T05:07:30.193Z,5.50
2023-04-14T05:09:33.024Z,10.60
2023-04-14T05:11:36.150Z,6.80
2023-04-14T05:13:39.027Z,3.80
2023-04-14T05:15:42.100Z,4.22
2023-04-14T05:17:44.943Z,3.47
2023-04-14T05:19:47.734Z,2.95
2023-04-14T05:21:50.508Z,3.47
2023-04-14T05:23:54.629Z,3.17
2023-04-14T05:26:07.245Z,3.78
2023-04-14T05:28:20.357Z,6.25
2023-04-14T05:30:23.312Z,4.00
2023-04-14T05:32:28.987Z,3.72
2023-04-14T05:34:32.143Z,3.05
2023-04-14T05:36:34.898Z,3.22
2023-04-14T05:38:40.134Z,3.10
2023-04-14T05:40:44.469Z,3.20
2023-04-14T05:42:47.328Z,2.80
2023-04-14T05:44:50.089Z,2.63
2023-04-14T05:46:52.983Z,2.55
2023-04-14T05:48:56.861Z,2.90
2023-04-14T05:50:59.672Z,3.20
2023-04-14T05:53:02.637Z,3.00
2023-04-14T05:55:06.114Z,2.88
2023-04-14T05:57:10.207Z,2.90
2023-04-14T05:59:13.155Z,3.35
2023-04-14T06:01:16.453Z,3.33
2023-04-14T06:03:19.419Z,3.40
2023-04-14T06:05:24.294Z,2.70
2023-04-14T06:07:27.235Z,2.85
2023-04-14T06:09:30.003Z,2.60
2023-04-14T06:11:32.952Z,2.70
2023-04-14T06:13:37.047Z,2.70
2023-04-14T06:15:39.806Z,2.72
2023-04-14T06:17:42.588Z,2.53
2023-04-14T06:19:46.877Z,2.85
2023-04-14T06:21:49.645Z,3.08
2023-04-14T06:23:52.416Z,3.00
2023-04-14T06:25:55.624Z,2.72
2023-04-14T06:27:58.426Z,2.67
2023-04-14T06:30:02.874Z,2.85
2023-04-14T06:32:05.746Z,3.17
2023-04-14T06:34:08.548Z,2.42
2023-04-14T06:36:11.365Z,3.28
2023-04-14T06:38:14.151Z,2.40
2023-04-14T06:40:16.984Z,2.55
2023-04-14T06:42:19.722Z,2.67
2023-04-14T06:44:23.708Z,2.60
2023-04-14T06:46:28.025Z,3.10
2023-04-14T06:48:30.866Z,2.92
2023-04-14T06:50:33.655Z,3.03
2023-04-14T06:52:36.498Z,2.40
2023-04-14T06:54:39.285Z,3.10
2023-04-14T06:56:42.073Z,2.75
2023-04-14T06:58:44.858Z,2.40
2023-04-14T07:00:47.663Z,2.60
2023-04-14T07:02:51.869Z,2.90
2023-04-14T07:04:54.800Z,2.58
2023-04-14T07:07:00.750Z,2.47
2023-04-14T07:09:03.557Z,2.33
2023-04-14T07:11:08.763Z,2.53
2023-04-14T07:13:11.588Z,2.28
2023-04-14T07:15:15.399Z,3.17
2023-04-14T07:17:18.579Z,2.40
2023-04-14T07:19:22.682Z,2.47
2023-04-14T07:21:25.488Z,2.38
2023-04-14T07:23:28.905Z,2.35
2023-04-14T07:25:31.684Z,2.60
2023-04-14T07:27:34.492Z,2.00
2023-04-14T07:29:37.421Z,2.20
2023-04-14T07:31:40.302Z,2.30
2023-04-14T07:33:43.087Z,2.30
2023-04-14T07:36:00.683Z,2.55
2023-04-14T07:38:04.552Z,4.07
2023-04-14T07:40:08.928Z,2.72
2023-04-14T07:42:12.602Z,2.13
2023-04-14T07:44:15.381Z,2.83
2023-04-14T07:46:18.269Z,1.70
2023-04-14T07:48:21.544Z,2.55
2023-04-14T07:50:24.703Z,2.22
2023-04-14T07:52:28.986Z,2.15
2023-04-14T07:54:32.079Z,2.22
2023-04-14T07:56:34.903Z,2.20
2023-04-14T07:58:37.821Z,2.30
2023-04-14T08:00:40.574Z,1.85
2023-04-14T08:02:43.856Z,2.10
2023-04-14T08:04:46.813Z,2.40
2023-04-14T08:06:49.550Z,2.30
2023-04-14T08:08:53.708Z,1.90
2023-04-14T08:10:56.495Z,1.70
2023-04-14T08:13:00.190Z,1.92
2023-04-14T08:15:04.818Z,1.90
2023-04-14T08:17:07.583Z,1.73
2023-04-14T08:19:10.476Z,1.75
2023-04-14T08:21:13.267Z,2.25
2023-04-14T08:23:16.183Z,1.85
2023-04-14T08:25:20.377Z,1.92
2023-04-14T08:27:23.146Z,1.73
2023-04-14T08:29:26.344Z,2.13
2023-04-14T08:31:29.196Z,1.40
2023-04-14T08:33:33.794Z,1.75
2023-04-14T08:35:41.497Z,1.30
2023-04-14T08:37:46.225Z,1.80
2023-04-14T08:39:48.990Z,1.20
2023-04-14T08:41:54.225Z,1.52
2023-04-14T08:43:57.198Z,1.70
2023-04-14T08:46:02.052Z,1.40
2023-04-14T08:48:05.910Z,1.00
2023-04-14T08:50:14.405Z,1.77
2023-04-14T08:52:21.952Z,1.00
2023-04-14T08:54:25.816Z,1.10
2023-04-14T08:56:32.954Z,0.82
2023-04-14T08:58:37.138Z,1.05
2023-04-14T09:00:41.111Z,0.98
2023-04-14T09:02:44.538Z,0.98
2023-04-14T09:04:47.978Z,1.60
2023-04-14T09:06:50.897Z,1.80
2023-04-14T09:08:54.095Z,1.90
2023-04-14T09:10:56.896Z,1.92
2023-04-14T09:13:01.384Z,1.73
2023-04-14T09:15:06.932Z,1.98
2023-04-14T09:17:10.172Z,1.83
2023-04-14T09:19:13.009Z,1.75
2023-04-14T09:21:30.335Z,2.08
2023-04-14T09:23:41.813Z,1.77
2023-04-14T09:25:44.701Z,1.67
2023-04-14T09:27:48.983Z,1.90
2023-04-14T09:29:52.704Z,1.63
2023-04-14T09:31:57.117Z,1.97
2023-04-14T09:34:00.197Z,1.67
2023-04-14T09:36:03.133Z,1.70
2023-04-14T09:38:08.007Z,1.50
2023-04-14T09:40:11.970Z,1.93
2023-04-14T09:42:14.753Z,1.77
2023-04-14T09:44:17.555Z,1.40
2023-04-14T09:46:20.529Z,1.53
2023-04-14T09:48:25.348Z,1.63
2023-04-14T09:50:28.169Z,1.17
2023-04-14T09:52:39.170Z,1.73
2023-04-14T09:54:43.070Z,1.60
2023-04-14T09:56:46.882Z,1.40
2023-04-14T09:58:50.400Z,1.20
2023-04-14T10:00:53.264Z,1.80
2023-04-14T10:02:59.122Z,1.40
2023-04-14T10:05:07.513Z,1.53
2023-04-14T10:07:12.217Z,1.57
2023-04-14T10:09:21.907Z,1.60
2023-04-14T10:11:26.221Z,1.80
2023-04-14T10:13:29.016Z,1.60
2023-04-14T10:15:31.962Z,1.43
2023-04-14T10:17:34.812Z,1.87
2023-04-14T10:19:39.025Z,1.93
2023-04-14T10:21:43.293Z,1.90
2023-04-14T10:23:47.238Z,1.40
2023-04-14T10:25:51.416Z,1.40
2023-04-14T10:27:54.469Z,1.67
2023-04-14T10:29:57.442Z,2.27
2023-04-14T10:32:05.463Z,1.60
2023-04-14T10:34:10.846Z,1.30
2023-04-14T10:36:14.092Z,1.30
2023-04-14T10:38:18.433Z,1.30
2023-04-14T10:40:23.078Z,1.40
2023-04-14T10:42:26.926Z,1.73
2023-04-14T10:44:31.671Z,1.47
2023-04-14T10:46:44.453Z,3.43
2023-04-14T10:48:49.869Z,2.03
2023-04-14T10:50:56.700Z,1.67
2023-04-14T10:53:00.401Z,1.90
2023-04-14T10:55:11.608Z,2.00
2023-04-14T10:57:15.540Z,1.50
2023-04-14T10:59:18.385Z,1.60
2023-04-14T11:01:31.127Z,2.43
2023-04-14T11:03:45.343Z,1.60
2023-04-14T11:05:50.713Z,1.80
2023-04-14T11:08:00.801Z,1.73
2023-04-14T11:10:28.383Z,1.50
2023-04-14T11:12:31.491Z,1.57
2023-04-14T11:14:36.400Z,1.83
2023-04-14T11:16:44.649Z,2.07
2023-04-14T11:18:55.591Z,1.73
2023-04-14T11:21:04.279Z,1.77
2023-04-14T11:23:07.069Z,1.87
2023-04-14T11:25:13.089Z,1.50
2023-04-14T11:27:17.924Z,1.40
2023-04-14T11:29:20.775Z,1.73
2023-04-14T11:31:28.166Z,1.73
2023-04-14T11:33:32.524Z,1.63
2023-04-14T11:35:35.520Z,1.80
2023-04-14T11:37:38.333Z,1.87
2023-04-14T11:39:41.371Z,1.70
2023-04-14T11:41:47.576Z,1.47
2023-04-14T11:43:51.806Z,1.67
2023-04-14T11:45:54.736Z,1.70
2023-04-14T11:47:59.318Z,1.80
2023-04-14T11:50:07.143Z,2.20
2023-04-14T11:52:09.987Z,4.30
2023-04-14T11:54:13.669Z,2.63
2023-04-14T11:56:17.324Z,3.37
2023-04-14T11:58:23.774Z,2.90
2023-04-14T12:00:28.571Z,4.90
2023-04-14T12:02:31.422Z,2.87
2023-04-14T12:04:34.818Z,1.27
2023-04-14T12:06:39.096Z,1.40
2023-04-14T12:08:41.917Z,1.27
2023-04-14T12:10:46.790Z,1.03
2023-04-14T12:12:49.556Z,6.67
2023-04-14T12:14:52.448Z,12.40
2023-04-14T12:16:56.717Z,3.50
2023-04-14T12:18:59.832Z,1.80
2023-04-14T12:21:05.940Z,1.23
2023-04-14T12:23:10.270Z,1.10
2023-04-14T12:25:13.882Z,1.50
2023-04-14T12:27:19.672Z,1.40
2023-04-14T12:29:22.903Z,1.40
2023-04-14T12:31:30.432Z,1.03
2023-04-14T12:33:35.198Z,1.27
2023-04-14T12:35:37.952Z,1.30
2023-04-14T12:37:41.532Z,1.97
2023-04-14T12:39:51.972Z,2.30
2023-04-14T12:41:55.570Z,1.70
2023-04-14T12:43:58.628Z,1.60
2023-04-14T12:46:03.722Z,1.10
2023-04-14T12:48:06.979Z,1.30
2023-04-14T12:50:29.087Z,1.10
2023-04-14T12:52:38.075Z,1.30
2023-04-14T12:54:48.770Z,1.80
2023-04-14T12:56:51.554Z,2.10
2023-04-14T12:58:55.313Z,2.60
2023-04-14T13:00:58.120Z,1.20
2023-04-14T13:03:01.037Z,1.20
2023-04-14T13:05:04.092Z,1.17
2023-04-14T13:07:08.219Z,2.70
2023-04-14T13:09:11.593Z,1.30
2023-04-14T13:11:14.697Z,1.50
2023-04-14T13:13:17.494Z,1.33
2023-04-14T13:15:27.883Z,1.50
2023-04-14T13:17:43.130Z,1.37
2023-04-14T13:19:46.066Z,1.20
2023-04-14T13:21:48.825Z,1.43
2023-04-14T13:23:52.925Z,1.93
2023-04-14T13:25:56.106Z,2.30
2023-04-14T13:27:58.866Z,1.40
2023-04-14T13:30:02.429Z,1.40
2023-04-14T13:32:09.696Z,1.60
2023-04-14T13:34:12.508Z,1.20
2023-04-14T13:36:15.644Z,2.30
2023-04-14T13:38:18.655Z,1.13
2023-04-14T13:40:22.846Z,1.13
2023-04-14T13:42:25.603Z,1.60
2023-04-14T13:44:28.852Z,1.27
2023-04-14T13:46:40.288Z,2.00
2023-04-14T13:48:44.128Z,1.43
2023-04-14T13:50:47.444Z,1.00
2023-04-14T13:52:50.277Z,1.20
2023-04-14T13:54:53.119Z,1.30
2023-04-14T13:56:57.707Z,1.40
2023-04-14T13:59:00.915Z,1.10
2023-04-14T14:01:10.855Z,1.30
2023-04-14T14:03:13.742Z,1.33
2023-04-14T14:05:16.885Z,1.00
2023-04-14T14:07:19.665Z,1.23
2023-04-14T14:09:22.463Z,3.27
2023-04-14T14:11:25.244Z,1.53
2023-04-14T14:13:29.625Z,1.20
2023-04-14T14:15:32.476Z,1.27
2023-04-14T14:17:36.782Z,1.37
2023-04-14T14:19:40.002Z,1.37
2023-04-14T14:21:43.961Z,1.27
2023-04-14T14:23:47.267Z,1.77
2023-04-14T14:25:50.153Z,2.10
2023-04-14T14:27:53.068Z,2.90
2023-04-14T14:29:57.238Z,2.33
2023-04-14T14:32:00.049Z,1.70
2023-04-14T14:34:02.983Z,1.50
2023-04-14T14:36:06.909Z,2.40
2023-04-14T14:38:09.694Z,2.63
2023-04-14T14:40:13.676Z,2.63
2023-04-14T14:42:16.433Z,3.50
2023-04-14T14:44:19.208Z,2.83
2023-04-14T14:46:23.908Z,3.70
2023-04-14T14:48:26.696Z,2.20
2023-04-14T14:50:29.436Z,1.73
2023-04-14T14:52:34.437Z,8.90
2023-04-14T14:54:37.654Z,3.00
2023-04-14T14:56:40.546Z,2.37
2023-04-14T14:58:43.408Z,1.60
2023-04-14T15:00:46.762Z,3.40
2023-04-14T15:02:51.236Z,15.10
2023-04-14T15:04:54.608Z,1.80
2023-04-14T15:06:57.459Z,1.60
2023-04-14T15:09:00.660Z,1.27
2023-04-14T15:11:03.535Z,1.40
2023-04-14T15:13:07.324Z,1.60
2023-04-14T15:15:10.878Z,1.10
2023-04-14T15:17:13.661Z,0.90
2023-04-14T15:19:17.762Z,1.23
2023-04-14T15:21:20.608Z,0.93
2023-04-14T15:23:23.360Z,1.40
2023-04-14T15:25:26.173Z,4.30
2023-04-14T15:27:28.871Z,1.70
2023-04-14T15:29:31.702Z,1.97
2023-04-14T15:31:34.640Z,1.40
2023-04-14T15:33:37.388Z,1.23
2023-04-14T15:35:42.136Z,1.23
2023-04-14T15:37:45.030Z,1.70
2023-04-14T15:39:47.778Z,1.07
2023-04-14T15:41:51.329Z,1.30
2023-04-14T15:43:54.118Z,1.43
2023-04-14T15:45:56.942Z,1.37
2023-04-14T15:47:59.802Z,1.70
2023-04-14T15:50:09.830Z,1.00
2023-04-14T15:52:14.890Z,1.37
2023-04-14T15:54:17.716Z,1.50
2023-04-14T15:56:23.055Z,1.30
2023-04-14T15:58:27.334Z,0.97
2023-04-14T16:00:30.146Z,1.30
2023-04-14T16:02:35.519Z,3.17
2023-04-14T16:04:38.480Z,3.27
2023-04-14T16:06:41.341Z,1.43
2023-04-14T16:08:45.525Z,1.70
2023-04-14T16:10:48.832Z,2.03
2023-04-14T16:12:51.598Z,2.07
2023-04-14T16:14:54.945Z,2.20
2023-04-14T16:16:57.691Z,2.57
2023-04-14T16:19:00.770Z,3.10
2023-04-14T16:21:03.850Z,3.17
2023-04-14T16:23:06.608Z,6.40
2023-04-14T16:25:11.265Z,6.43
2023-04-14T16:27:14.030Z,7.00
2023-04-14T16:29:16.797Z,4.57
2023-04-14T16:31:19.635Z,2.27
2023-04-14T16:33:22.363Z,3.20
2023-04-14T16:35:25.740Z,6.83
2023-04-14T16:37:28.498Z,6.97
2023-04-14T16:39:31.646Z,4.47
2023-04-14T16:41:36.204Z,2.33
2023-04-14T16:43:38.929Z,2.20
2023-04-14T16:45:41.958Z,1.50
2023-04-14T16:47:44.755Z,2.13
2023-04-14T16:49:50.046Z,1.80
2023-04-14T16:51:52.803Z,2.50
2023-04-14T16:53:57.042Z,2.30
2023-04-14T16:56:04.326Z,2.63
2023-04-14T16:58:09.612Z,1.30
2023-04-14T17:00:13.792Z,1.10
2023-04-14T17:02:16.679Z,1.30
2023-04-14T17:04:19.828Z,1.37
2023-04-14T17:06:22.794Z,2.07
2023-04-14T17:08:25.583Z,1.90
2023-04-14T17:10:29.691Z,5.37
2023-04-14T17:12:32.727Z,5.20
2023-04-14T17:14:37.313Z,4.83
2023-04-14T17:16:40.201Z,3.10
2023-04-14T17:18:43.981Z,2.90
2023-04-14T17:20:47.051Z,2.57
2023-04-14T17:22:51.283Z,2.17
2023-04-14T17:24:55.676Z,2.50
2023-04-14T17:26:58.441Z,2.43
2023-04-14T17:29:01.382Z,2.40
2023-04-14T17:31:12.618Z,3.00
2023-04-14T17:33:16.798Z,3.20
2023-04-14T17:35:19.990Z,2.80
2023-04-14T17:37:23.177Z,3.10
2023-04-14T17:39:27.688Z,3.30
2023-04-14T17:41:30.882Z,3.37
2023-04-14T17:43:37.850Z,3.07
2023-04-14T17:45:43.796Z,3.30
2023-04-14T17:47:47.937Z,4.00
2023-04-14T17:49:51.150Z,2.93
2023-04-14T17:51:56.219Z,3.30
2023-04-14T17:53:59.497Z,3.37
2023-04-14T17:56:02.462Z,3.67
2023-04-14T17:58:05.821Z,3.27
2023-04-14T18:00:11.093Z,4.00
2023-04-14T18:02:16.830Z,3.73
2023-04-14T18:04:21.327Z,8.50
2023-04-14T18:06:24.273Z,3.30
2023-04-14T18:08:27.029Z,2.80
2023-04-14T18:10:29.863Z,2.23
2023-04-14T18:12:33.350Z,5.57
2023-04-14T18:14:36.699Z,4.97
2023-04-14T18:16:39.519Z,3.20
2023-04-14T18:18:42.351Z,2.15
2023-04-14T18:20:50.103Z,2.67
2023-04-14T18:22:54.123Z,4.18
2023-04-14T18:24:56.903Z,15.93
2023-04-14T18:26:59.813Z,11.70
2023-04-14T18:29:02.820Z,10.25
2023-04-14T18:31:06.553Z,10.18
2023-04-14T18:33:09.351Z,7.72
2023-04-14T18:35:12.987Z,4.20
2023-04-14T18:37:17.104Z,3.78
2023-04-14T18:39:20.764Z,2.92
2023-04-14T18:41:23.565Z,2.50
2023-04-14T18:43:26.409Z,2.90
2023-04-14T18:45:29.186Z,3.35
2023-04-14T18:47:32.055Z,3.13
2023-04-14T18:49:35.341Z,3.20
2023-04-14T18:51:38.130Z,3.20
2023-04-14T18:53:44.008Z,2.97
2023-04-14T18:55:48.345Z,4.10
2023-04-14T18:57:52.794Z,4.50
2023-04-14T18:59:55.752Z,3.90
2023-04-14T19:01:59.558Z,4.78
2023-04-14T19:04:03.070Z,5.25
2023-04-14T19:06:06.180Z,4.72
2023-04-14T19:08:08.981Z,4.35
2023-04-14T19:10:13.132Z,4.10
2023-04-14T19:14:24.397Z,3.67
2023-04-14T19:16:27.585Z,4.57
2023-04-14T19:18:30.403Z,3.92
2023-04-14T19:20:33.607Z,3.17
2023-04-14T19:22:36.336Z,2.08
2023-04-14T19:24:39.153Z,1.80
2023-04-14T19:26:43.250Z,2.00
2023-04-14T19:28:46.052Z,2.10
2023-04-14T19:30:48.855Z,1.80
2023-04-14T19:32:53.364Z,1.90
2023-04-14T19:34:56.369Z,1.80
2023-04-14T19:36:59.131Z,1.52
2023-04-14T19:39:02.025Z,2.30
2023-04-14T19:41:05.045Z,4.57
2023-04-14T19:43:09.101Z,5.15
2023-04-14T19:45:12.215Z,5.30
2023-04-14T19:47:14.921Z,4.40
2023-04-14T19:49:17.670Z,4.22
2023-04-14T19:51:21.340Z,4.55
2023-04-14T19:53:24.914Z,4.15
2023-04-14T19:55:27.693Z,4.50
2023-04-14T19:57:30.538Z,3.90
2023-04-14T19:59:34.666Z,3.30
2023-04-14T20:01:37.607Z,2.90
2023-04-14T20:04:04.999Z,2.53
2023-04-14T20:06:03.706Z,2.35
2023-04-14T20:08:07.057Z,1.92
2023-04-14T20:10:10.767Z,2.53
2023-04-14T20:12:14.472Z,12.70
2023-04-14T20:14:17.953Z,8.02
2023-04-14T20:16:26.957Z,17.35
2023-04-14T20:18:30.693Z,2.88
2023-04-14T20:20:33.715Z,2.13
2023-04-14T20:22:36.969Z,2.00
2023-04-14T20:24:39.798Z,1.77
2023-04-14T20:26:43.632Z,1.70
2023-04-14T20:28:47.473Z,1.52
2023-04-14T20:30:52.667Z,1.80
2023-04-14T20:32:56.900Z,1.90
2023-04-14T20:35:00.193Z,1.17
2023-04-14T20:37:02.959Z,1.90
2023-04-14T20:39:06.430Z,1.70
2023-04-14T20:41:09.161Z,1.70
2023-04-14T20:43:12.044Z,1.63
2023-04-14T20:45:14.862Z,1.65
2023-04-14T20:47:17.699Z,2.17
2023-04-14T20:49:22.184Z,2.00
2023-04-14T20:51:25.212Z,1.90
2023-04-14T20:53:29.988Z,1.55
2023-04-14T20:55:32.834Z,1.95
2023-04-14T20:57:35.581Z,1.77
2023-04-14T20:59:38.317Z,2.33
2023-04-14T21:01:42.678Z,2.53
2023-04-14T21:03:45.590Z,2.00
2023-04-14T21:05:49.743Z,1.67
2023-04-14T21:07:52.734Z,1.50
2023-04-14T21:09:55.508Z,1.70
2023-04-14T21:12:14.720Z,2.05
2023-04-14T21:15:40.489Z,3.00
2023-04-14T21:16:41.827Z,3.20
2023-04-14T21:18:44.704Z,2.83
2023-04-14T21:20:48.816Z,3.08
2023-04-14T21:22:52.175Z,4.22
2023-04-14T21:24:55.074Z,3.13
2023-04-14T21:26:58.016Z,3.20
2023-04-14T21:29:01.113Z,3.25
2023-04-14T21:31:04.569Z,3.85
2023-04-14T21:33:08.782Z,3.50
2023-04-14T21:35:21.302Z,4.10
2023-04-14T21:37:25.557Z,2.97
2023-04-14T21:39:29.941Z,3.35
2023-04-14T21:41:33.096Z,2.55
2023-04-14T21:43:36.284Z,2.50
2023-04-14T21:45:39.293Z,2.80
2023-04-14T21:47:42.727Z,2.65
2023-04-14T21:49:45.596Z,4.35
2023-04-14T21:51:48.452Z,5.00
2023-04-14T21:53:52.667Z,3.70
2023-04-14T21:56:08.737Z,6.03
2023-04-14T21:58:13.606Z,4.95
2023-04-14T22:00:17.428Z,4.00
2023-04-14T22:02:20.502Z,2.97
2023-04-14T22:04:35.331Z,2.85
2023-04-14T22:06:39.549Z,2.60
2023-04-14T22:08:42.357Z,2.58
2023-04-14T22:10:47.387Z,2.40
2023-04-14T22:12:50.641Z,2.45
2023-04-14T22:14:53.783Z,5.53
2023-04-14T22:16:56.614Z,5.78
2023-04-14T22:18:59.579Z,3.95
2023-04-14T22:21:03.069Z,4.25
2023-04-14T22:23:05.940Z,4.50
2023-04-14T22:25:11.538Z,13.43
2023-04-14T22:27:15.687Z,14.88
2023-04-14T22:29:18.731Z,30.60
2023-04-14T22:31:21.793Z,8.55
2023-04-14T22:33:24.596Z,5.18
2023-04-14T22:35:27.442Z,4.70
2023-04-14T22:37:30.199Z,4.47
2023-04-14T22:39:32.962Z,3.75
2023-04-14T22:41:35.835Z,3.67
2023-04-14T22:43:39.896Z,2.92
2023-04-14T22:45:42.609Z,3.90
2023-04-14T22:47:45.615Z,3.03
2023-04-14T22:49:48.533Z,3.30
2023-04-14T22:51:51.745Z,3.60
2023-04-14T22:53:54.466Z,3.33
2023-04-14T22:55:58.193Z,3.28
2023-04-14T22:58:01.046Z,3.40
2023-04-14T23:00:09.060Z,6.10
2023-04-14T23:02:12.710Z,5.80
2023-04-14T23:04:15.643Z,6.32
2023-04-14T23:06:19.844Z,5.07
2023-04-14T23:08:22.544Z,5.07
2023-04-14T23:10:25.438Z,4.97
2023-04-14T23:12:28.396Z,4.03
2023-04-14T23:14:32.287Z,3.60
2023-04-14T23:16:36.554Z,3.80
2023-04-14T23:18:40.009Z,4.38
2023-04-14T23:20:43.165Z,4.47
2023-04-14T23:22:45.917Z,4.03
2023-04-14T23:24:50.175Z,4.72
2023-04-14T23:26:52.895Z,3.28
2023-04-14T23:28:55.763Z,3.35
2023-04-14T23:30:58.808Z,2.78
2023-04-14T23:33:03.029Z,3.25
2023-04-14T23:35:06.915Z,3.70
2023-04-14T23:37:09.645Z,3.10
2023-04-14T23:39:12.587Z,3.80
2023-04-14T23:41:15.609Z,3.00
2023-04-14T23:43:18.304Z,3.70
2023-04-14T23:45:21.065Z,4.32
2023-04-14T23:47:23.866Z,3.80
2023-04-14T23:49:34.849Z,4.13
2023-04-14T23:51:38.514Z,4.50
2023-04-14T23:53:41.598Z,4.53
2023-04-14T23:55:44.585Z,3.63
2023-04-14T23:57:47.321Z,3.72
2023-04-14T23:59:50.010Z,3.90
